createdAt,value
2018-08-06T00:02:32.995Z,21.39
2018-08-06T00:07:26.236Z,21.16
2018-08-06T00:12:20.179Z,21.01
2018-08-06T00:17:13.323Z,21.18
2018-08-06T00:22:06.683Z,21.41
2018-08-06T00:26:59.674Z,21.47
2018-08-06T00:31:52.690Z,21.45
2018-08-06T00:36:46.025Z,21.46
2018-08-06T00:41:39.281Z,21.32
2018-08-06T00:46:32.330Z,21.31
2018-08-06T00:51:25.517Z,21.33
2018-08-06T00:56:18.557Z,21.34
2018-08-06T01:01:11.551Z,21.01
2018-08-06T01:06:04.986Z,20.87
2018-08-06T01:10:58.045Z,20.96
2018-08-06T01:15:51.170Z,20.99
2018-08-06T01:20:44.248Z,21.04
2018-08-06T01:25:37.387Z,20.91
2018-08-06T01:30:30.495Z,20.95
2018-08-06T01:35:23.398Z,20.85
2018-08-06T01:40:17.375Z,20.67
2018-08-06T01:45:13.056Z,20.76
2018-08-06T01:50:07.036Z,20.82
2018-08-06T01:54:59.982Z,20.71
2018-08-06T01:59:53.672Z,20.73
2018-08-06T02:04:46.645Z,20.69
2018-08-06T02:09:39.715Z,20.71
2018-08-06T02:14:33.078Z,20.80
2018-08-06T02:19:26.014Z,20.84
2018-08-06T02:24:18.993Z,20.87
2018-08-06T02:29:12.654Z,20.82
2018-08-06T02:34:05.751Z,20.64
2018-08-06T02:38:58.799Z,20.77
2018-08-06T02:43:51.864Z,20.76
2018-08-06T02:48:45.781Z,20.72
2018-08-06T02:53:39.367Z,20.65
2018-08-06T02:58:32.347Z,20.54
2018-08-06T03:03:25.408Z,20.50
2018-08-06T03:08:18.359Z,20.44
2018-08-06T03:13:11.330Z,20.32
2018-08-06T03:18:04.446Z,20.36
2018-08-06T03:22:57.496Z,20.44
2018-08-06T03:27:50.691Z,20.69
2018-08-06T03:32:47.842Z,20.66
2018-08-06T03:37:40.945Z,20.64
2018-08-06T03:42:34.065Z,20.80
2018-08-06T03:47:27.035Z,20.95
2018-08-06T03:52:20.014Z,21.06
2018-08-06T03:57:13.462Z,21.25
2018-08-06T04:02:06.577Z,21.42
2018-08-06T04:06:59.889Z,21.40
2018-08-06T04:11:52.968Z,21.55
2018-08-06T04:16:45.928Z,21.76
2018-08-06T04:21:39.426Z,21.86
2018-08-06T04:26:32.463Z,21.94
2018-08-06T04:31:25.399Z,22.09
2018-08-06T04:36:18.386Z,22.26
2018-08-06T04:41:11.716Z,22.35
2018-08-06T04:46:05.006Z,22.61
2018-08-06T04:50:58.598Z,22.59
2018-08-06T04:55:51.690Z,22.82
2018-08-06T05:00:44.888Z,23.00
2018-08-06T05:05:37.827Z,23.20
2018-08-06T05:10:30.762Z,23.48
2018-08-06T05:15:23.666Z,23.62
2018-08-06T05:20:16.664Z,24.00
2018-08-06T05:25:10.068Z,24.07
2018-08-06T05:30:03.584Z,24.19
2018-08-06T05:34:56.657Z,24.32
2018-08-06T05:39:50.106Z,24.58
2018-08-06T05:44:43.303Z,24.92
2018-08-06T05:49:36.406Z,25.21
2018-08-06T05:54:29.735Z,25.23
2018-08-06T05:59:22.833Z,25.36
2018-08-06T06:04:15.923Z,25.52
2018-08-06T06:09:10.182Z,25.70
2018-08-06T06:14:03.787Z,25.87
2018-08-06T06:18:56.754Z,26.13
2018-08-06T06:23:49.801Z,26.10
2018-08-06T06:28:43.648Z,25.82
2018-08-06T06:33:36.747Z,25.97
2018-08-06T06:38:30.766Z,26.01
2018-08-06T06:43:24.414Z,26.37
2018-08-06T06:48:17.309Z,26.70
2018-08-06T06:53:10.647Z,27.22
2018-08-06T06:58:04.020Z,27.42
2018-08-06T07:02:57.473Z,27.68
2018-08-06T07:07:50.591Z,27.87
2018-08-06T07:12:43.869Z,27.90
2018-08-06T07:17:37.238Z,27.71
2018-08-06T07:22:30.245Z,27.71
2018-08-06T07:27:23.715Z,27.96
2018-08-06T07:32:19.231Z,28.26
2018-08-06T07:37:12.182Z,28.59
2018-08-06T07:42:05.314Z,28.33
2018-08-06T07:47:00.032Z,28.53
2018-08-06T07:51:54.327Z,28.69
2018-08-06T07:56:47.573Z,28.52
2018-08-06T08:01:40.670Z,28.60
2018-08-06T08:06:33.801Z,28.89
2018-08-06T08:11:27.285Z,29.21
2018-08-06T08:16:20.968Z,28.99
2018-08-06T08:21:14.187Z,28.92
2018-08-06T08:26:08.270Z,28.90
2018-08-06T08:31:01.689Z,28.73
2018-08-06T08:35:54.644Z,28.66
2018-08-06T08:40:47.643Z,28.99
2018-08-06T08:45:40.865Z,28.82
2018-08-06T08:50:33.942Z,28.86
2018-08-06T08:55:27.166Z,29.22
2018-08-06T09:00:22.149Z,29.25
2018-08-06T09:05:15.881Z,29.51
2018-08-06T09:10:10.738Z,29.82
2018-08-06T09:15:04.802Z,29.92
2018-08-06T09:19:58.883Z,29.72
2018-08-06T09:24:52.376Z,29.59
2018-08-06T09:29:45.491Z,29.36
2018-08-06T09:34:38.590Z,29.23
2018-08-06T09:39:31.556Z,29.24
2018-08-06T09:44:24.533Z,29.29
2018-08-06T09:49:17.614Z,29.79
2018-08-06T09:54:10.663Z,29.70
2018-08-06T09:59:03.716Z,29.33
2018-08-06T10:03:57.956Z,29.34
2018-08-06T10:08:51.675Z,29.70
2018-08-06T10:13:44.779Z,29.95
2018-08-06T10:18:38.028Z,29.92
2018-08-06T10:23:31.003Z,30.02
2018-08-06T10:28:24.794Z,30.35
2018-08-06T10:33:17.755Z,30.01
2018-08-06T10:38:10.850Z,29.79
2018-08-06T10:43:04.005Z,29.67
2018-08-06T10:47:57.005Z,29.78
2018-08-06T10:52:50.086Z,29.80
2018-08-06T10:57:44.191Z,29.51
2018-08-06T11:02:37.324Z,29.30
2018-08-06T11:07:30.917Z,29.18
2018-08-06T11:12:24.069Z,29.45
2018-08-06T11:17:17.222Z,29.84
2018-08-06T11:22:10.637Z,29.99
2018-08-06T11:27:03.797Z,30.46
2018-08-06T11:31:56.839Z,30.63
2018-08-06T11:36:49.900Z,30.41
2018-08-06T11:41:43.795Z,30.23
2018-08-06T11:46:36.942Z,29.69
2018-08-06T11:51:29.986Z,29.85
2018-08-06T11:56:23.103Z,29.81
2018-08-06T12:01:15.995Z,29.84
2018-08-06T12:06:09.084Z,29.87
2018-08-06T12:11:02.027Z,29.90
2018-08-06T12:15:55.102Z,29.98
2018-08-06T12:20:48.521Z,30.00
2018-08-06T12:25:41.696Z,30.47
2018-08-06T12:30:34.736Z,30.41
2018-08-06T12:35:27.838Z,30.41
2018-08-06T12:40:22.115Z,30.08
2018-08-06T12:45:15.817Z,29.97
2018-08-06T12:50:09.991Z,30.07
2018-08-06T12:55:03.426Z,30.13
2018-08-06T12:59:56.429Z,30.09
2018-08-06T13:04:49.466Z,30.25
2018-08-06T13:09:42.451Z,30.12
2018-08-06T13:14:36.044Z,30.32
2018-08-06T13:19:29.041Z,31.74
2018-08-06T13:24:22.022Z,32.00
2018-08-06T13:29:15.957Z,32.62
2018-08-06T13:34:08.906Z,32.71
2018-08-06T13:39:01.983Z,32.44
2018-08-06T13:43:55.035Z,32.71
2018-08-06T13:48:48.779Z,32.01
2018-08-06T13:53:42.099Z,32.14
2018-08-06T13:58:35.045Z,32.41
2018-08-06T14:03:28.188Z,32.37
2018-08-06T14:08:21.856Z,32.05
2018-08-06T14:13:14.916Z,31.09
2018-08-06T14:18:08.092Z,30.75
2018-08-06T14:23:01.256Z,30.53
2018-08-06T14:27:54.307Z,30.59
2018-08-06T14:32:47.866Z,31.55
2018-08-06T14:37:40.941Z,31.72
2018-08-06T14:42:34.107Z,31.88
2018-08-06T14:47:27.104Z,32.17
2018-08-06T14:52:20.108Z,31.77
2018-08-06T14:57:13.606Z,31.61
2018-08-06T15:02:06.608Z,31.98
2018-08-06T15:06:59.728Z,31.73
2018-08-06T15:11:52.915Z,31.68
2018-08-06T15:16:45.963Z,31.74
2018-08-06T15:21:39.152Z,31.81
2018-08-06T15:26:32.278Z,31.76
2018-08-06T15:31:25.721Z,31.45
2018-08-06T15:36:19.721Z,31.54
2018-08-06T15:41:12.831Z,31.31
2018-08-06T15:46:05.789Z,31.54
2018-08-06T15:50:58.735Z,31.34
2018-08-06T15:55:52.032Z,31.36
2018-08-06T16:00:45.250Z,31.20
2018-08-06T16:05:38.595Z,31.21
2018-08-06T16:10:31.995Z,31.17
2018-08-06T16:15:25.127Z,31.18
2018-08-06T16:20:18.682Z,30.95
2018-08-06T16:25:13.461Z,30.81
2018-08-06T16:30:11.995Z,29.90
2018-08-06T16:35:05.776Z,29.35
2018-08-06T16:39:58.860Z,29.23
2018-08-06T16:44:53.430Z,29.11
2018-08-06T16:49:46.686Z,28.86
2018-08-06T16:54:40.105Z,28.76
2018-08-06T16:59:33.788Z,28.70
2018-08-06T17:04:27.347Z,28.60
2018-08-06T17:09:20.467Z,28.48
2018-08-06T17:14:13.794Z,28.45
2018-08-06T17:19:06.811Z,28.40
2018-08-06T17:24:00.200Z,28.37
2018-08-06T17:28:53.184Z,28.30
2018-08-06T17:33:46.367Z,28.18
2018-08-06T17:38:39.813Z,28.08
2018-08-06T17:43:34.000Z,27.75
2018-08-06T17:48:27.218Z,27.92
2018-08-06T17:53:20.658Z,27.75
2018-08-06T17:58:13.714Z,27.26
2018-08-06T18:03:06.968Z,26.85
2018-08-06T18:08:00.206Z,26.32
2018-08-06T18:12:53.104Z,26.00
2018-08-06T18:17:46.100Z,25.93
2018-08-06T18:22:39.056Z,25.82
2018-08-06T18:27:32.316Z,25.75
2018-08-06T18:32:26.070Z,25.69
2018-08-06T18:37:19.196Z,25.52
2018-08-06T18:42:12.751Z,25.44
2018-08-06T18:47:06.392Z,25.28
2018-08-06T18:51:59.609Z,25.23
2018-08-06T18:56:52.714Z,24.97
2018-08-06T19:01:45.887Z,24.79
2018-08-06T19:06:39.538Z,24.64
2018-08-06T19:11:32.767Z,24.35
2018-08-06T19:16:26.734Z,24.16
2018-08-06T19:21:19.755Z,24.18
2018-08-06T19:26:12.807Z,24.23
2018-08-06T19:31:11.177Z,24.04
2018-08-06T19:36:04.419Z,23.96
2018-08-06T19:40:57.420Z,23.86
2018-08-06T19:45:50.523Z,23.60
2018-08-06T19:50:44.446Z,23.41
2018-08-06T19:55:43.023Z,23.18
2018-08-06T20:00:38.497Z,23.05
2018-08-06T20:05:31.588Z,23.01
2018-08-06T20:10:24.684Z,23.00
2018-08-06T20:15:19.681Z,22.87
2018-08-06T20:20:13.272Z,22.90
2018-08-06T20:25:08.899Z,22.88
2018-08-06T20:30:01.967Z,22.84
2018-08-06T20:34:55.925Z,22.71
2018-08-06T20:39:49.461Z,22.75
2018-08-06T20:44:42.579Z,22.71
2018-08-06T20:49:35.637Z,22.67
2018-08-06T20:54:28.605Z,22.55
2018-08-06T20:59:21.536Z,22.49
2018-08-06T21:04:14.739Z,22.29
2018-08-06T21:09:09.242Z,22.27
2018-08-06T21:14:02.326Z,22.12
2018-08-06T21:18:55.361Z,22.19
2018-08-06T21:23:48.383Z,22.18
2018-08-06T21:28:41.495Z,22.35
2018-08-06T21:33:34.616Z,22.31
2018-08-06T21:38:27.630Z,22.29
2018-08-06T21:43:20.749Z,22.27
2018-08-06T21:48:13.818Z,22.30
2018-08-06T21:53:07.033Z,22.40
2018-08-06T21:58:06.918Z,22.39
2018-08-06T22:03:00.087Z,22.29
2018-08-06T22:07:53.019Z,21.98
2018-08-06T22:12:45.998Z,21.98
2018-08-06T22:17:38.967Z,22.06
2018-08-06T22:22:32.144Z,22.02
2018-08-06T22:27:25.263Z,21.96
2018-08-06T22:32:18.360Z,21.91
2018-08-06T22:37:11.354Z,22.10
2018-08-06T22:42:04.301Z,22.49
2018-08-06T22:46:57.371Z,22.54
2018-08-06T22:51:50.459Z,22.30
2018-08-06T22:56:43.555Z,22.34
2018-08-06T23:01:36.524Z,22.33
2018-08-06T23:06:30.558Z,22.44
2018-08-06T23:11:23.574Z,22.57
2018-08-06T23:16:16.682Z,22.78
2018-08-06T23:21:10.666Z,22.57
2018-08-06T23:26:07.619Z,22.26
2018-08-06T23:31:00.730Z,22.31
2018-08-06T23:35:53.864Z,22.34
2018-08-06T23:40:47.484Z,22.30
2018-08-06T23:45:40.490Z,22.19
2018-08-06T23:50:34.305Z,22.06
2018-08-06T23:55:27.471Z,21.81
